createdAt,value
2018-12-25T08:25:06.824Z,75.55
2018-12-25T08:27:35.140Z,73.21
2018-12-25T08:30:04.121Z,69.85
2018-12-25T11:16:18.374Z,81.48
2018-12-25T11:18:49.235Z,70.23
2018-12-25T11:21:17.020Z,69.20
2018-12-25T11:23:45.788Z,67.06
2018-12-25T11:26:14.098Z,67.90
2018-12-25T11:28:42.600Z,69.69
2018-12-25T11:31:10.965Z,69.25
2018-12-25T11:33:39.627Z,68.23
2018-12-25T11:36:07.929Z,68.35
2018-12-25T11:38:36.594Z,67.22
2018-12-25T11:41:04.981Z,68.35
2018-12-25T11:43:33.316Z,66.92
2018-12-25T11:46:01.630Z,68.67
2018-12-25T11:48:30.322Z,72.09
2018-12-25T11:50:58.627Z,68.56
2018-12-25T11:53:26.952Z,68.24
2018-12-25T11:55:55.259Z,69.52
2018-12-25T11:58:23.589Z,70.34
2018-12-25T12:00:52.232Z,69.60
2018-12-25T12:03:20.551Z,70.64
2018-12-25T12:05:48.852Z,68.57
2018-12-25T12:08:17.170Z,68.57
2018-12-25T12:10:45.859Z,69.15
2018-12-25T12:13:14.183Z,66.66
2018-12-25T12:15:42.489Z,70.45
2018-12-25T12:18:10.817Z,66.93
2018-12-25T12:20:39.125Z,69.29
2018-12-25T12:23:07.770Z,66.12
2018-12-25T12:25:36.148Z,71.66
2018-12-25T12:28:04.845Z,67.69
2018-12-25T12:30:33.240Z,69.43
2018-12-25T12:33:01.914Z,68.23
2018-12-25T12:35:30.228Z,68.62
2018-12-25T12:37:58.523Z,67.65
2018-12-25T12:40:26.850Z,70.67
2018-12-25T12:42:55.151Z,72.09
2018-12-25T12:45:23.628Z,70.60
2018-12-25T12:47:52.012Z,69.89
2018-12-25T12:50:20.419Z,66.30
2018-12-25T12:52:48.797Z,66.86
2018-12-25T12:55:17.123Z,68.54
2018-12-25T12:57:45.532Z,69.26
2018-12-25T13:00:13.855Z,71.90
2018-12-25T13:02:42.239Z,70.01
2018-12-25T13:05:11.024Z,73.76
2018-12-25T13:07:39.604Z,71.61
2018-12-25T13:10:09.631Z,73.79
2018-12-25T13:12:38.183Z,72.97
2018-12-25T13:15:07.129Z,75.00
2018-12-25T13:17:35.526Z,72.82
2018-12-25T13:20:04.978Z,74.98
2018-12-25T13:22:33.303Z,70.72
2018-12-25T13:25:01.631Z,70.62
2018-12-25T13:27:30.022Z,71.98
2018-12-25T13:29:58.366Z,71.47
2018-12-25T13:32:26.659Z,69.30
2018-12-25T13:34:54.965Z,69.99
2018-12-25T13:37:23.297Z,69.41
2018-12-25T13:39:51.608Z,69.05
2018-12-25T13:42:20.074Z,67.14
2018-12-25T13:44:48.381Z,64.34
2018-12-25T13:47:17.151Z,63.82
2018-12-25T13:49:45.460Z,67.41
2018-12-25T13:52:13.838Z,69.80
2018-12-25T13:54:42.159Z,67.18
2018-12-25T13:57:10.558Z,69.49
2018-12-25T13:59:39.362Z,67.22
2018-12-25T14:02:07.673Z,66.69
2018-12-25T14:04:36.163Z,65.78
2018-12-25T14:07:04.470Z,63.96
2018-12-25T14:09:32.802Z,67.59
2018-12-25T14:12:01.109Z,66.18
2018-12-25T14:14:29.601Z,63.46
2018-12-25T14:16:57.903Z,66.00
2018-12-25T14:19:26.625Z,66.84
2018-12-25T14:21:55.012Z,62.88
2018-12-25T14:24:23.502Z,61.52
2018-12-25T14:26:52.180Z,63.03
2018-12-25T14:29:20.478Z,67.06
2018-12-25T14:31:48.880Z,63.75
2018-12-25T14:34:17.187Z,64.83
2018-12-25T14:36:45.906Z,64.56
2018-12-25T14:39:14.290Z,65.50
2018-12-25T14:41:42.609Z,67.14
2018-12-25T14:44:10.914Z,67.35
2018-12-25T14:46:39.235Z,66.46
2018-12-25T14:49:07.544Z,67.42
2018-12-25T14:51:35.858Z,68.64
2018-12-25T14:54:04.255Z,66.19
2018-12-25T14:56:32.573Z,67.46
2018-12-25T14:59:00.878Z,66.91
2018-12-25T15:01:29.196Z,66.89
2018-12-25T15:03:57.497Z,67.09
2018-12-25T15:06:25.820Z,67.17
2018-12-25T15:08:54.126Z,63.09
2018-12-25T15:11:22.448Z,64.64
2018-12-25T15:13:50.783Z,64.27
2018-12-25T15:16:19.094Z,68.47
2018-12-25T15:18:47.412Z,67.36
2018-12-25T15:21:16.000Z,67.56
2018-12-25T15:23:44.327Z,65.37
2018-12-25T15:26:12.625Z,66.99
2018-12-25T15:28:40.950Z,64.93
2018-12-25T15:31:09.588Z,63.04
2018-12-25T15:33:37.915Z,67.09
2018-12-25T15:36:06.768Z,66.80
2018-12-25T15:38:35.091Z,65.16
2018-12-25T15:41:03.407Z,61.17
2018-12-25T15:43:31.715Z,62.53
2018-12-25T15:46:00.041Z,65.12
2018-12-25T15:48:28.356Z,63.98
2018-12-25T15:50:56.666Z,64.43
2018-12-25T15:53:24.970Z,62.24
2018-12-25T15:55:53.300Z,62.91
2018-12-25T15:58:21.609Z,64.61
2018-12-25T16:00:50.268Z,65.41
2018-12-25T16:03:18.962Z,64.07
2018-12-25T16:05:47.488Z,66.48
2018-12-25T16:08:15.797Z,64.17
2018-12-25T16:10:44.219Z,64.22
2018-12-25T16:13:12.626Z,66.17
2018-12-25T16:15:41.012Z,63.74
2018-12-25T16:18:09.338Z,62.55
2018-12-25T16:20:37.946Z,64.00
2018-12-25T16:23:06.400Z,60.91
2018-12-25T16:25:34.828Z,62.30
2018-12-25T16:28:03.150Z,62.88
2018-12-25T16:30:31.782Z,65.10
2018-12-25T16:33:00.064Z,63.49
2018-12-25T16:35:28.365Z,64.27
2018-12-25T16:37:56.798Z,66.68
2018-12-25T16:40:25.108Z,65.10
2018-12-25T16:42:53.416Z,65.60
2018-12-25T16:45:21.747Z,65.74
2018-12-25T16:47:50.051Z,64.92
2018-12-25T16:50:18.387Z,65.35
2018-12-25T16:52:46.700Z,64.81
2018-12-25T16:55:15.035Z,65.70
2018-12-25T16:57:43.343Z,65.78
2018-12-25T17:00:11.658Z,65.00
2018-12-25T17:02:40.026Z,68.79
2018-12-25T17:05:08.413Z,63.78
2018-12-25T17:07:36.715Z,64.67
2018-12-25T17:10:06.886Z,65.68
2018-12-25T17:12:35.198Z,64.00
2018-12-25T17:15:03.590Z,64.05
2018-12-25T17:17:32.250Z,65.14
2018-12-25T17:20:00.549Z,65.09
2018-12-25T17:22:29.157Z,68.20
2018-12-25T17:24:57.569Z,68.37
2018-12-25T17:27:28.010Z,69.47
2018-12-25T17:29:56.305Z,65.90
2018-12-25T17:32:24.620Z,67.68
2018-12-25T17:34:52.999Z,66.66
2018-12-25T17:37:21.432Z,66.05
2018-12-25T17:39:49.803Z,66.63
2018-12-25T17:42:18.130Z,64.23
2018-12-25T17:44:46.431Z,66.06
2018-12-25T17:47:14.759Z,65.61
2018-12-25T17:49:43.367Z,66.69
2018-12-25T17:52:11.698Z,67.34
2018-12-25T17:54:40.333Z,68.96
2018-12-25T17:57:08.665Z,69.11
2018-12-25T17:59:36.976Z,68.51
2018-12-25T18:02:05.693Z,68.40
2018-12-25T18:04:33.992Z,69.72
2018-12-25T18:07:02.657Z,70.39
2018-12-25T18:09:30.973Z,68.70
2018-12-25T18:11:59.295Z,70.17
2018-12-25T18:14:27.692Z,70.52
2018-12-25T18:16:56.001Z,69.32
2018-12-25T18:19:24.319Z,68.75
2018-12-25T18:21:52.697Z,66.95
2018-12-25T18:24:21.027Z,68.56
2018-12-25T18:26:49.399Z,68.65
2018-12-25T18:29:17.744Z,68.23
2018-12-25T18:31:46.131Z,69.33
2018-12-25T18:34:14.454Z,69.71
2018-12-25T18:36:42.835Z,67.87
2018-12-25T18:39:11.162Z,68.37
2018-12-25T18:41:39.571Z,69.16
2018-12-25T18:44:07.878Z,69.65
2018-12-25T18:46:36.284Z,70.02
2018-12-25T18:49:04.680Z,69.45
2018-12-25T18:51:33.003Z,71.61
2018-12-25T18:54:01.310Z,70.64
2018-12-25T18:56:29.734Z,69.45
2018-12-25T18:58:58.362Z,69.38
2018-12-25T19:01:26.990Z,69.65
2018-12-25T19:03:56.046Z,70.88
2018-12-25T19:06:24.373Z,70.32
2018-12-25T19:08:52.673Z,69.77
2018-12-25T19:11:20.978Z,69.20
2018-12-25T19:13:49.317Z,70.78
2018-12-25T19:16:17.710Z,70.03
2018-12-25T19:18:46.036Z,71.63
2018-12-25T19:21:14.342Z,69.46
2018-12-25T19:23:45.855Z,68.15
2018-12-25T19:26:14.176Z,68.70
2018-12-25T19:28:42.509Z,69.30
2018-12-25T19:31:10.854Z,70.29
2018-12-25T19:33:39.547Z,70.35
2018-12-25T19:36:07.922Z,70.59
2018-12-25T19:38:36.240Z,70.24
2018-12-25T19:41:04.583Z,69.29
2018-12-25T19:43:33.230Z,68.18
2018-12-25T19:46:02.003Z,68.74
2018-12-25T19:48:30.398Z,70.28
2018-12-25T19:50:59.140Z,72.51
2018-12-25T19:53:27.518Z,73.00
2018-12-25T19:55:55.835Z,72.39
2018-12-25T19:58:24.225Z,73.59
2018-12-25T20:00:52.632Z,72.13
2018-12-25T20:03:21.307Z,72.38
2018-12-25T20:06:13.643Z,73.14
2018-12-25T20:08:53.938Z,74.52
2018-12-25T20:11:46.240Z,72.74
2018-12-25T20:14:29.342Z,73.08
2018-12-25T20:17:06.803Z,73.65
2018-12-25T20:19:50.247Z,72.18
2018-12-25T20:22:41.086Z,72.68
2018-12-25T20:25:35.725Z,73.76
2018-12-25T20:28:19.073Z,75.20
2018-12-25T20:31:09.996Z,71.84
2018-12-25T20:33:44.344Z,71.06
2018-12-25T20:36:21.692Z,74.65
2018-12-25T20:39:07.838Z,73.42
2018-12-25T20:42:03.324Z,73.22
2018-12-25T20:44:43.566Z,73.20
2018-12-25T20:47:23.730Z,74.52
2018-12-25T20:50:19.138Z,74.83
2018-12-25T20:53:05.613Z,75.54
2018-12-25T20:55:42.625Z,74.16
2018-12-25T20:58:23.488Z,76.67
2018-12-25T21:00:54.984Z,75.40
2018-12-25T21:03:38.783Z,74.71
2018-12-25T21:06:22.050Z,74.17
2018-12-25T21:09:21.115Z,72.24
2018-12-25T21:12:01.370Z,74.90
2018-12-25T21:14:47.459Z,75.16
2018-12-25T21:17:46.560Z,75.78
2018-12-25T21:20:30.125Z,74.64
2018-12-25T21:23:34.625Z,74.57
2018-12-25T21:26:39.149Z,75.39
2018-12-25T21:29:07.591Z,72.46
2018-12-25T21:31:35.894Z,75.58
2018-12-25T21:34:04.280Z,76.72
2018-12-25T21:36:32.678Z,75.09
2018-12-25T21:39:01.419Z,73.89
2018-12-25T21:41:29.824Z,72.54
2018-12-25T21:43:58.198Z,72.99
2018-12-25T21:46:26.602Z,74.00
2018-12-25T21:48:54.901Z,73.06
2018-12-25T21:51:23.895Z,72.41
2018-12-25T21:53:52.275Z,73.12
2018-12-25T21:56:20.667Z,74.38
2018-12-25T21:58:49.048Z,73.82
2018-12-25T22:01:17.372Z,70.48
2018-12-25T22:03:45.742Z,73.21
2018-12-25T22:06:14.065Z,70.87
2018-12-25T22:08:42.373Z,70.58
2018-12-25T22:11:10.706Z,69.34
2018-12-25T22:13:39.012Z,68.83
2018-12-25T22:16:07.424Z,68.88
2018-12-25T22:18:36.282Z,71.81
2018-12-25T22:21:04.680Z,71.67
2018-12-25T22:23:32.984Z,70.86
2018-12-25T22:26:01.351Z,72.62
2018-12-25T22:28:30.164Z,72.22
2018-12-25T22:30:58.483Z,70.56
2018-12-25T22:33:27.115Z,72.74
2018-12-25T22:35:55.428Z,73.94
2018-12-25T22:38:23.922Z,70.90
2018-12-25T22:40:52.229Z,72.96
2018-12-25T22:43:20.553Z,72.61
2018-12-25T22:45:49.233Z,70.76
2018-12-25T22:48:17.573Z,73.62
2018-12-25T22:50:45.903Z,73.08
2018-12-25T22:53:14.207Z,72.87
2018-12-25T22:55:42.511Z,73.24
2018-12-25T22:58:10.824Z,73.83
2018-12-25T23:00:39.352Z,71.58
2018-12-25T23:03:07.657Z,72.96
2018-12-25T23:05:35.980Z,74.48
2018-12-25T23:08:04.288Z,74.08
2018-12-25T23:10:32.621Z,72.60
2018-12-25T23:13:00.925Z,73.24
2018-12-25T23:15:29.264Z,75.72
2018-12-25T23:17:57.639Z,73.90
2018-12-25T23:20:28.931Z,71.12
2018-12-25T23:22:56.693Z,74.79
2018-12-25T23:25:25.386Z,73.50
2018-12-25T23:27:53.709Z,73.80
2018-12-25T23:30:22.352Z,73.62
2018-12-25T23:32:50.683Z,72.97
2018-12-25T23:35:19.066Z,69.47
2018-12-25T23:37:47.393Z,69.19
2018-12-25T23:40:15.695Z,70.25
2018-12-25T23:42:44.093Z,71.66
2018-12-25T23:45:12.407Z,70.41
2018-12-25T23:47:41.061Z,72.25
2018-12-25T23:50:09.368Z,73.02
2018-12-25T23:52:37.797Z,71.81
2018-12-25T23:55:06.210Z,73.91
2018-12-25T23:57:34.554Z,73.25
